sensor_id;sensor_type;location;lat;lon;timestamp;P1;durP1;ratioP1;P2;durP2;ratioP2
64487;SDS011;50864;45.050;39.014;2022-08-21T00:01:16;367.65;;;103.68;;
64487;SDS011;50864;45.050;39.014;2022-08-21T00:03:42;321.02;;;94.85;;
64487;SDS011;50864;45.050;39.014;2022-08-21T00:06:08;372.58;;;105.00;;
64487;SDS011;50864;45.050;39.014;2022-08-21T00:08:34;365.98;;;103.53;;
64487;SDS011;50864;45.050;39.014;2022-08-21T00:11:00;384.08;;;106.70;;
64487;SDS011;50864;45.050;39.014;2022-08-21T00:13:26;363.45;;;102.43;;
64487;SDS011;50864;45.050;39.014;2022-08-21T00:15:51;353.27;;;101.20;;
64487;SDS011;50864;45.050;39.014;2022-08-21T00:18:18;325.17;;;95.25;;
64487;SDS011;50864;45.050;39.014;2022-08-21T00:20:45;363.30;;;102.82;;
64487;SDS011;50864;45.050;39.014;2022-08-21T00:23:11;404.65;;;111.93;;
64487;SDS011;50864;45.050;39.014;2022-08-21T00:25:38;389.38;;;107.85;;
64487;SDS011;50864;45.050;39.014;2022-08-21T00:28:04;357.27;;;100.28;;
64487;SDS011;50864;45.050;39.014;2022-08-21T00:30:31;330.27;;;93.90;;
64487;SDS011;50864;45.050;39.014;2022-08-21T00:32:58;340.25;;;96.65;;
64487;SDS011;50864;45.050;39.014;2022-08-21T00:35:26;319.17;;;93.25;;
64487;SDS011;50864;45.050;39.014;2022-08-21T00:37:52;335.83;;;95.87;;
64487;SDS011;50864;45.050;39.014;2022-08-21T00:40:21;284.37;;;85.30;;
64487;SDS011;50864;45.050;39.014;2022-08-21T00:42:47;326.48;;;92.78;;
64487;SDS011;50864;45.050;39.014;2022-08-21T00:45:13;321.85;;;90.95;;
64487;SDS011;50864;45.050;39.014;2022-08-21T00:47:39;309.37;;;92.03;;
64487;SDS011;50864;45.050;39.014;2022-08-21T00:50:06;315.62;;;92.68;;
64487;SDS011;50864;45.050;39.014;2022-08-21T00:52:33;283.10;;;86.18;;
64487;SDS011;50864;45.050;39.014;2022-08-21T00:55:00;236.35;;;77.25;;
64487;SDS011;50864;45.050;39.014;2022-08-21T00:57:30;249.88;;;79.03;;
64487;SDS011;50864;45.050;39.014;2022-08-21T00:59:59;228.57;;;76.37;;
64487;SDS011;50864;45.050;39.014;2022-08-21T01:02:27;259.00;;;82.00;;
64487;SDS011;50864;45.050;39.014;2022-08-21T01:04:53;341.55;;;95.72;;
64487;SDS011;50864;45.050;39.014;2022-08-21T01:07:19;277.38;;;82.95;;
64487;SDS011;50864;45.050;39.014;2022-08-21T01:09:46;266.23;;;82.25;;
64487;SDS011;50864;45.050;39.014;2022-08-21T01:12:13;345.20;;;98.68;;
64487;SDS011;50864;45.050;39.014;2022-08-21T01:14:39;309.45;;;90.62;;
64487;SDS011;50864;45.050;39.014;2022-08-21T01:17:07;363.65;;;101.32;;
64487;SDS011;50864;45.050;39.014;2022-08-21T01:19:33;355.55;;;100.53;;
64487;SDS011;50864;45.050;39.014;2022-08-21T01:21:59;372.35;;;102.90;;
64487;SDS011;50864;45.050;39.014;2022-08-21T01:24:26;362.98;;;101.15;;
64487;SDS011;50864;45.050;39.014;2022-08-21T01:26:52;316.02;;;91.10;;
64487;SDS011;50864;45.050;39.014;2022-08-21T01:31:44;329.42;;;93.75;;
64487;SDS011;50864;45.050;39.014;2022-08-21T01:34:10;310.65;;;91.10;;
64487;SDS011;50864;45.050;39.014;2022-08-21T01:36:36;312.23;;;90.45;;
64487;SDS011;50864;45.050;39.014;2022-08-21T01:39:03;321.65;;;91.40;;
64487;SDS011;50864;45.050;39.014;2022-08-21T01:41:29;289.63;;;86.97;;
64487;SDS011;50864;45.050;39.014;2022-08-21T01:43:55;287.80;;;84.40;;
64487;SDS011;50864;45.050;39.014;2022-08-21T01:46:22;308.83;;;90.53;;
64487;SDS011;50864;45.050;39.014;2022-08-21T01:48:48;296.37;;;86.63;;
64487;SDS011;50864;45.050;39.014;2022-08-21T01:51:13;277.85;;;83.22;;
64487;SDS011;50864;45.050;39.014;2022-08-21T01:53:40;291.00;;;84.50;;
64487;SDS011;50864;45.050;39.014;2022-08-21T01:56:10;302.80;;;86.37;;
64487;SDS011;50864;45.050;39.014;2022-08-21T01:58:39;247.48;;;78.68;;
64487;SDS011;50864;45.050;39.014;2022-08-21T02:01:06;282.77;;;85.30;;
64487;SDS011;50864;45.050;39.014;2022-08-21T02:03:32;281.40;;;83.60;;
64487;SDS011;50864;45.050;39.014;2022-08-21T02:05:58;314.05;;;87.80;;
64487;SDS011;50864;45.050;39.014;2022-08-21T02:08:24;278.77;;;82.95;;
64487;SDS011;50864;45.050;39.014;2022-08-21T02:10:50;302.13;;;88.70;;
64487;SDS011;50864;45.050;39.014;2022-08-21T02:13:17;278.35;;;81.50;;
64487;SDS011;50864;45.050;39.014;2022-08-21T02:15:43;264.35;;;81.35;;
64487;SDS011;50864;45.050;39.014;2022-08-21T02:18:09;298.87;;;88.07;;
64487;SDS011;50864;45.050;39.014;2022-08-21T02:20:37;302.73;;;88.55;;
64487;SDS011;50864;45.050;39.014;2022-08-21T02:23:03;277.50;;;82.97;;
64487;SDS011;50864;45.050;39.014;2022-08-21T02:25:29;320.70;;;92.03;;
64487;SDS011;50864;45.050;39.014;2022-08-21T02:27:56;296.83;;;86.65;;
64487;SDS011;50864;45.050;39.014;2022-08-21T02:30:23;311.62;;;89.70;;
64487;SDS011;50864;45.050;39.014;2022-08-21T02:32:50;364.30;;;97.53;;
64487;SDS011;50864;45.050;39.014;2022-08-21T02:35:16;385.50;;;102.45;;
64487;SDS011;50864;45.050;39.014;2022-08-21T02:37:49;383.13;;;101.60;;
64487;SDS011;50864;45.050;39.014;2022-08-21T02:40:16;338.70;;;91.20;;
64487;SDS011;50864;45.050;39.014;2022-08-21T02:42:42;330.50;;;91.03;;
64487;SDS011;50864;45.050;39.014;2022-08-21T02:45:09;383.35;;;101.90;;
64487;SDS011;50864;45.050;39.014;2022-08-21T02:47:35;378.60;;;102.72;;
64487;SDS011;50864;45.050;39.014;2022-08-21T02:50:01;361.40;;;97.22;;
64487;SDS011;50864;45.050;39.014;2022-08-21T02:52:27;364.58;;;100.55;;
64487;SDS011;50864;45.050;39.014;2022-08-21T02:54:54;362.40;;;97.28;;
64487;SDS011;50864;45.050;39.014;2022-08-21T02:57:19;344.67;;;93.82;;
64487;SDS011;50864;45.050;39.014;2022-08-21T02:59:45;377.58;;;99.80;;
64487;SDS011;50864;45.050;39.014;2022-08-21T03:02:12;341.38;;;90.97;;
64487;SDS011;50864;45.050;39.014;2022-08-21T03:04:38;355.37;;;98.82;;
64487;SDS011;50864;45.050;39.014;2022-08-21T03:07:04;347.37;;;95.05;;
64487;SDS011;50864;45.050;39.014;2022-08-21T03:09:30;385.40;;;103.80;;
64487;SDS011;50864;45.050;39.014;2022-08-21T03:11:56;362.73;;;97.05;;
64487;SDS011;50864;45.050;39.014;2022-08-21T03:14:23;465.27;;;121.90;;
64487;SDS011;50864;45.050;39.014;2022-08-21T03:16:49;424.75;;;113.03;;
64487;SDS011;50864;45.050;39.014;2022-08-21T03:19:15;370.42;;;101.57;;
64487;SDS011;50864;45.050;39.014;2022-08-21T03:21:41;342.70;;;94.15;;
64487;SDS011;50864;45.050;39.014;2022-08-21T03:24:07;379.75;;;102.20;;
64487;SDS011;50864;45.050;39.014;2022-08-21T03:26:34;351.70;;;95.78;;
64487;SDS011;50864;45.050;39.014;2022-08-21T03:29:00;366.20;;;98.82;;
64487;SDS011;50864;45.050;39.014;2022-08-21T03:31:27;346.27;;;94.75;;
64487;SDS011;50864;45.050;39.014;2022-08-21T03:33:56;359.55;;;99.28;;
64487;SDS011;50864;45.050;39.014;2022-08-21T03:36:22;362.77;;;99.05;;
64487;SDS011;50864;45.050;39.014;2022-08-21T03:38:49;309.62;;;89.15;;
64487;SDS011;50864;45.050;39.014;2022-08-21T03:41:14;329.83;;;92.97;;
64487;SDS011;50864;45.050;39.014;2022-08-21T03:43:40;328.73;;;92.28;;
64487;SDS011;50864;45.050;39.014;2022-08-21T03:46:06;307.15;;;88.60;;
64487;SDS011;50864;45.050;39.014;2022-08-21T03:48:33;327.70;;;92.50;;
64487;SDS011;50864;45.050;39.014;2022-08-21T03:50:59;357.58;;;97.45;;
64487;SDS011;50864;45.050;39.014;2022-08-21T03:53:25;347.88;;;95.45;;
64487;SDS011;50864;45.050;39.014;2022-08-21T03:55:51;322.50;;;92.15;;
64487;SDS011;50864;45.050;39.014;2022-08-21T03:58:18;320.20;;;90.38;;
64487;SDS011;50864;45.050;39.014;2022-08-21T04:00:46;344.33;;;95.68;;
64487;SDS011;50864;45.050;39.014;2022-08-21T04:03:12;337.90;;;91.50;;
64487;SDS011;50864;45.050;39.014;2022-08-21T04:05:38;324.70;;;91.95;;
64487;SDS011;50864;45.050;39.014;2022-08-21T04:08:04;373.75;;;102.53;;
64487;SDS011;50864;45.050;39.014;2022-08-21T04:10:32;340.27;;;96.22;;
64487;SDS011;50864;45.050;39.014;2022-08-21T04:12:58;367.52;;;99.50;;
64487;SDS011;50864;45.050;39.014;2022-08-21T04:15:24;328.67;;;91.78;;
64487;SDS011;50864;45.050;39.014;2022-08-21T04:17:51;402.35;;;104.50;;
64487;SDS011;50864;45.050;39.014;2022-08-21T04:20:17;382.70;;;98.50;;
64487;SDS011;50864;45.050;39.014;2022-08-21T04:22:44;359.20;;;99.95;;
64487;SDS011;50864;45.050;39.014;2022-08-21T04:25:11;416.50;;;109.68;;
64487;SDS011;50864;45.050;39.014;2022-08-21T04:27:37;399.95;;;106.25;;
64487;SDS011;50864;45.050;39.014;2022-08-21T04:30:04;436.45;;;114.60;;
64487;SDS011;50864;45.050;39.014;2022-08-21T04:32:31;432.90;;;114.68;;
64487;SDS011;50864;45.050;39.014;2022-08-21T04:34:58;397.12;;;107.90;;
64487;SDS011;50864;45.050;39.014;2022-08-21T04:37:23;413.00;;;110.85;;
64487;SDS011;50864;45.050;39.014;2022-08-21T04:39:50;443.20;;;117.32;;
64487;SDS011;50864;45.050;39.014;2022-08-21T04:42:16;443.83;;;117.03;;
64487;SDS011;50864;45.050;39.014;2022-08-21T04:44:42;368.25;;;102.03;;
64487;SDS011;50864;45.050;39.014;2022-08-21T04:47:09;382.98;;;103.68;;
64487;SDS011;50864;45.050;39.014;2022-08-21T04:49:34;386.12;;;106.37;;
64487;SDS011;50864;45.050;39.014;2022-08-21T04:52:00;376.73;;;100.10;;
64487;SDS011;50864;45.050;39.014;2022-08-21T04:54:27;377.35;;;101.25;;
64487;SDS011;50864;45.050;39.014;2022-08-21T04:56:54;391.38;;;103.57;;
64487;SDS011;50864;45.050;39.014;2022-08-21T04:59:21;342.08;;;98.70;;
64487;SDS011;50864;45.050;39.014;2022-08-21T05:01:48;384.98;;;104.75;;
64487;SDS011;50864;45.050;39.014;2022-08-21T05:04:15;346.83;;;96.28;;
64487;SDS011;50864;45.050;39.014;2022-08-21T05:06:43;346.30;;;93.25;;
64487;SDS011;50864;45.050;39.014;2022-08-21T05:09:12;335.55;;;94.72;;
64487;SDS011;50864;45.050;39.014;2022-08-21T05:11:38;390.08;;;103.87;;
64487;SDS011;50864;45.050;39.014;2022-08-21T05:14:03;395.98;;;105.68;;
64487;SDS011;50864;45.050;39.014;2022-08-21T05:16:30;392.75;;;107.63;;
64487;SDS011;50864;45.050;39.014;2022-08-21T05:18:56;382.40;;;103.87;;
64487;SDS011;50864;45.050;39.014;2022-08-21T05:21:21;443.17;;;118.57;;
64487;SDS011;50864;45.050;39.014;2022-08-21T05:23:47;351.08;;;97.43;;
64487;SDS011;50864;45.050;39.014;2022-08-21T05:26:13;311.80;;;86.95;;
64487;SDS011;50864;45.050;39.014;2022-08-21T05:28:39;358.02;;;97.65;;
64487;SDS011;50864;45.050;39.014;2022-08-21T05:31:05;326.80;;;92.03;;
64487;SDS011;50864;45.050;39.014;2022-08-21T05:33:31;352.52;;;97.22;;
64487;SDS011;50864;45.050;39.014;2022-08-21T05:35:57;369.92;;;102.28;;
64487;SDS011;50864;45.050;39.014;2022-08-21T05:38:23;451.17;;;118.70;;
64487;SDS011;50864;45.050;39.014;2022-08-21T05:40:50;506.15;;;131.73;;
64487;SDS011;50864;45.050;39.014;2022-08-21T05:43:16;349.67;;;94.65;;
64487;SDS011;50864;45.050;39.014;2022-08-21T05:45:42;377.25;;;101.95;;
64487;SDS011;50864;45.050;39.014;2022-08-21T05:48:10;338.33;;;96.68;;
64487;SDS011;50864;45.050;39.014;2022-08-21T05:50:36;436.62;;;116.45;;
64487;SDS011;50864;45.050;39.014;2022-08-21T05:53:04;373.40;;;103.22;;
64487;SDS011;50864;45.050;39.014;2022-08-21T05:55:30;345.95;;;96.25;;
64487;SDS011;50864;45.050;39.014;2022-08-21T05:57:56;366.40;;;99.57;;
64487;SDS011;50864;45.050;39.014;2022-08-21T06:00:22;383.83;;;104.35;;
64487;SDS011;50864;45.050;39.014;2022-08-21T06:02:49;376.58;;;103.10;;
64487;SDS011;50864;45.050;39.014;2022-08-21T06:05:16;346.60;;;97.35;;
64487;SDS011;50864;45.050;39.014;2022-08-21T06:07:42;407.27;;;108.82;;
64487;SDS011;50864;45.050;39.014;2022-08-21T06:10:09;529.12;;;136.15;;
64487;SDS011;50864;45.050;39.014;2022-08-21T06:12:34;431.77;;;112.65;;
64487;SDS011;50864;45.050;39.014;2022-08-21T06:15:00;398.65;;;105.55;;
64487;SDS011;50864;45.050;39.014;2022-08-21T06:17:26;439.27;;;116.90;;
64487;SDS011;50864;45.050;39.014;2022-08-21T06:19:53;483.20;;;125.22;;
64487;SDS011;50864;45.050;39.014;2022-08-21T06:22:19;426.15;;;107.45;;
64487;SDS011;50864;45.050;39.014;2022-08-21T06:24:45;401.08;;;104.87;;
64487;SDS011;50864;45.050;39.014;2022-08-21T06:27:11;366.25;;;93.12;;
64487;SDS011;50864;45.050;39.014;2022-08-21T06:29:37;387.42;;;100.57;;
64487;SDS011;50864;45.050;39.014;2022-08-21T06:32:04;276.50;;;78.28;;
64487;SDS011;50864;45.050;39.014;2022-08-21T06:34:32;397.63;;;99.60;;
64487;SDS011;50864;45.050;39.014;2022-08-21T06:36:57;348.33;;;95.10;;
64487;SDS011;50864;45.050;39.014;2022-08-21T06:39:23;444.65;;;114.47;;
64487;SDS011;50864;45.050;39.014;2022-08-21T06:41:49;502.90;;;129.55;;
64487;SDS011;50864;45.050;39.014;2022-08-21T06:44:16;404.35;;;104.55;;
64487;SDS011;50864;45.050;39.014;2022-08-21T06:46:42;257.90;;;73.87;;
64487;SDS011;50864;45.050;39.014;2022-08-21T06:49:08;223.85;;;69.85;;
64487;SDS011;50864;45.050;39.014;2022-08-21T06:51:34;250.77;;;74.18;;
64487;SDS011;50864;45.050;39.014;2022-08-21T06:54:00;215.87;;;67.03;;
64487;SDS011;50864;45.050;39.014;2022-08-21T06:56:26;279.98;;;77.05;;
64487;SDS011;50864;45.050;39.014;2022-08-21T06:58:51;231.07;;;69.32;;
64487;SDS011;50864;45.050;39.014;2022-08-21T07:01:19;386.23;;;99.82;;
64487;SDS011;50864;45.050;39.014;2022-08-21T07:03:45;415.27;;;103.32;;
64487;SDS011;50864;45.050;39.014;2022-08-21T07:06:11;338.40;;;83.65;;
64487;SDS011;50864;45.050;39.014;2022-08-21T07:08:38;235.35;;;64.30;;
64487;SDS011;50864;45.050;39.014;2022-08-21T07:11:06;186.48;;;53.85;;
64487;SDS011;50864;45.050;39.014;2022-08-21T07:13:33;193.13;;;55.10;;
64487;SDS011;50864;45.050;39.014;2022-08-21T07:15:59;264.52;;;69.65;;
64487;SDS011;50864;45.050;39.014;2022-08-21T07:18:24;281.60;;;76.03;;
64487;SDS011;50864;45.050;39.014;2022-08-21T07:20:50;394.50;;;96.53;;
64487;SDS011;50864;45.050;39.014;2022-08-21T07:25:45;261.52;;;64.20;;
64487;SDS011;50864;45.050;39.014;2022-08-21T07:28:11;234.90;;;57.83;;
64487;SDS011;50864;45.050;39.014;2022-08-21T07:30:37;177.27;;;48.47;;
64487;SDS011;50864;45.050;39.014;2022-08-21T07:33:03;214.68;;;59.13;;
64487;SDS011;50864;45.050;39.014;2022-08-21T07:35:29;227.98;;;61.60;;
64487;SDS011;50864;45.050;39.014;2022-08-21T07:37:56;313.58;;;79.78;;
64487;SDS011;50864;45.050;39.014;2022-08-21T07:40:22;258.70;;;64.12;;
64487;SDS011;50864;45.050;39.014;2022-08-21T07:42:48;158.15;;;44.95;;
64487;SDS011;50864;45.050;39.014;2022-08-21T07:45:21;160.93;;;45.50;;
64487;SDS011;50864;45.050;39.014;2022-08-21T07:47:48;149.62;;;44.88;;
64487;SDS011;50864;45.050;39.014;2022-08-21T07:50:14;112.55;;;36.13;;
64487;SDS011;50864;45.050;39.014;2022-08-21T07:52:41;120.78;;;39.83;;
64487;SDS011;50864;45.050;39.014;2022-08-21T07:55:08;129.52;;;37.85;;
64487;SDS011;50864;45.050;39.014;2022-08-21T07:57:34;126.65;;;35.58;;
64487;SDS011;50864;45.050;39.014;2022-08-21T08:00:00;108.07;;;31.58;;
64487;SDS011;50864;45.050;39.014;2022-08-21T08:02:26;104.50;;;30.20;;
64487;SDS011;50864;45.050;39.014;2022-08-21T08:04:53;74.80;;;22.42;;
64487;SDS011;50864;45.050;39.014;2022-08-21T08:07:19;72.03;;;19.30;;
64487;SDS011;50864;45.050;39.014;2022-08-21T08:09:44;70.37;;;18.67;;
64487;SDS011;50864;45.050;39.014;2022-08-21T08:12:11;79.15;;;20.90;;
64487;SDS011;50864;45.050;39.014;2022-08-21T08:14:37;66.18;;;18.50;;
64487;SDS011;50864;45.050;39.014;2022-08-21T08:17:03;65.18;;;16.90;;
64487;SDS011;50864;45.050;39.014;2022-08-21T08:19:29;81.63;;;22.85;;
64487;SDS011;50864;45.050;39.014;2022-08-21T08:21:55;69.22;;;19.20;;
64487;SDS011;50864;45.050;39.014;2022-08-21T08:24:21;72.50;;;21.80;;
64487;SDS011;50864;45.050;39.014;2022-08-21T08:26:47;70.75;;;21.42;;
64487;SDS011;50864;45.050;39.014;2022-08-21T08:29:13;81.40;;;22.85;;
64487;SDS011;50864;45.050;39.014;2022-08-21T08:31:39;78.12;;;22.70;;
64487;SDS011;50864;45.050;39.014;2022-08-21T08:34:05;77.68;;;21.77;;
64487;SDS011;50864;45.050;39.014;2022-08-21T08:36:32;58.87;;;16.00;;
64487;SDS011;50864;45.050;39.014;2022-08-21T08:38:59;65.10;;;16.12;;
64487;SDS011;50864;45.050;39.014;2022-08-21T08:41:26;52.58;;;15.73;;
64487;SDS011;50864;45.050;39.014;2022-08-21T08:43:57;57.88;;;15.05;;
64487;SDS011;50864;45.050;39.014;2022-08-21T08:46:28;39.97;;;9.57;;
64487;SDS011;50864;45.050;39.014;2022-08-21T08:48:57;39.53;;;8.05;;
64487;SDS011;50864;45.050;39.014;2022-08-21T08:51:35;40.83;;;8.48;;
64487;SDS011;50864;45.050;39.014;2022-08-21T08:54:04;51.37;;;11.23;;
64487;SDS011;50864;45.050;39.014;2022-08-21T08:56:33;50.45;;;11.50;;
64487;SDS011;50864;45.050;39.014;2022-08-21T08:59:05;38.63;;;8.07;;
64487;SDS011;50864;45.050;39.014;2022-08-21T09:01:32;44.58;;;8.35;;
64487;SDS011;50864;45.050;39.014;2022-08-21T09:03:58;39.28;;;7.03;;
64487;SDS011;50864;45.050;39.014;2022-08-21T09:06:28;42.15;;;7.93;;
64487;SDS011;50864;45.050;39.014;2022-08-21T09:09:06;36.20;;;7.82;;
64487;SDS011;50864;45.050;39.014;2022-08-21T09:20:03;43.22;;;8.02;;
64487;SDS011;50864;45.050;39.014;2022-08-21T09:27:38;52.83;;;10.20;;
64487;SDS011;50864;45.050;39.014;2022-08-21T09:30:05;57.92;;;13.43;;
64487;SDS011;50864;45.050;39.014;2022-08-21T09:32:32;46.60;;;12.10;;
64487;SDS011;50864;45.050;39.014;2022-08-21T09:35:00;55.20;;;13.00;;
64487;SDS011;50864;45.050;39.014;2022-08-21T09:37:27;61.30;;;13.40;;
64487;SDS011;50864;45.050;39.014;2022-08-21T09:39:55;43.17;;;11.60;;
64487;SDS011;50864;45.050;39.014;2022-08-21T09:42:24;57.60;;;12.52;;
64487;SDS011;50864;45.050;39.014;2022-08-21T09:45:00;51.50;;;12.27;;
64487;SDS011;50864;45.050;39.014;2022-08-21T09:47:30;63.17;;;15.00;;
64487;SDS011;50864;45.050;39.014;2022-08-21T09:49:55;51.78;;;12.13;;
64487;SDS011;50864;45.050;39.014;2022-08-21T09:52:32;58.58;;;14.02;;
64487;SDS011;50864;45.050;39.014;2022-08-21T09:54:58;66.40;;;16.00;;
64487;SDS011;50864;45.050;39.014;2022-08-21T09:57:25;66.87;;;15.65;;
64487;SDS011;50864;45.050;39.014;2022-08-21T10:00:25;80.60;;;18.20;;
64487;SDS011;50864;45.050;39.014;2022-08-21T10:02:51;51.58;;;13.57;;
64487;SDS011;50864;45.050;39.014;2022-08-21T10:05:36;69.50;;;18.37;;
64487;SDS011;50864;45.050;39.014;2022-08-21T10:08:03;57.47;;;15.85;;
64487;SDS011;50864;45.050;39.014;2022-08-21T10:10:30;42.62;;;9.15;;
64487;SDS011;50864;45.050;39.014;2022-08-21T10:15:37;49.20;;;11.45;;
64487;SDS011;50864;45.050;39.014;2022-08-21T10:25:46;64.75;;;16.70;;
64487;SDS011;50864;45.050;39.014;2022-08-21T10:28:25;69.53;;;18.42;;
64487;SDS011;50864;45.050;39.014;2022-08-21T10:31:07;55.38;;;12.88;;
64487;SDS011;50864;45.050;39.014;2022-08-21T10:33:39;71.80;;;19.90;;
64487;SDS011;50864;45.050;39.014;2022-08-21T10:36:14;74.43;;;16.80;;
64487;SDS011;50864;45.050;39.014;2022-08-21T10:38:55;55.55;;;14.87;;
64487;SDS011;50864;45.050;39.014;2022-08-21T10:46:37;62.22;;;17.77;;
64487;SDS011;50864;45.050;39.014;2022-08-21T10:51:38;70.22;;;16.67;;
64487;SDS011;50864;45.050;39.014;2022-08-21T10:56:36;54.85;;;15.02;;
64487;SDS011;50864;45.050;39.014;2022-08-21T10:59:07;61.75;;;15.80;;
64487;SDS011;50864;45.050;39.014;2022-08-21T11:01:44;66.82;;;14.98;;
64487;SDS011;50864;45.050;39.014;2022-08-21T11:06:44;57.05;;;12.77;;
64487;SDS011;50864;45.050;39.014;2022-08-21T11:09:12;43.00;;;10.20;;
64487;SDS011;50864;45.050;39.014;2022-08-21T11:11:41;51.72;;;11.40;;
64487;SDS011;50864;45.050;39.014;2022-08-21T11:14:16;63.30;;;12.77;;
64487;SDS011;50864;45.050;39.014;2022-08-21T11:17:00;46.20;;;11.63;;
64487;SDS011;50864;45.050;39.014;2022-08-21T11:19:31;46.95;;;10.60;;
64487;SDS011;50864;45.050;39.014;2022-08-21T11:24:34;34.30;;;7.57;;
64487;SDS011;50864;45.050;39.014;2022-08-21T11:29:49;33.10;;;9.05;;
64487;SDS011;50864;45.050;39.014;2022-08-21T11:32:38;50.42;;;13.05;;
64487;SDS011;50864;45.050;39.014;2022-08-21T11:40:11;45.88;;;10.73;;
64487;SDS011;50864;45.050;39.014;2022-08-21T11:46:07;45.55;;;9.75;;
64487;SDS011;50864;45.050;39.014;2022-08-21T11:50:27;50.22;;;10.77;;
64487;SDS011;50864;45.050;39.014;2022-08-21T11:52:56;35.55;;;9.65;;
64487;SDS011;50864;45.050;39.014;2022-08-21T11:55:34;45.08;;;10.60;;
64487;SDS011;50864;45.050;39.014;2022-08-21T11:58:24;41.03;;;9.00;;
64487;SDS011;50864;45.050;39.014;2022-08-21T12:01:03;37.72;;;8.05;;
64487;SDS011;50864;45.050;39.014;2022-08-21T12:03:32;43.80;;;9.68;;
64487;SDS011;50864;45.050;39.014;2022-08-21T12:06:06;39.83;;;8.77;;
64487;SDS011;50864;45.050;39.014;2022-08-21T12:08:39;45.88;;;9.65;;
64487;SDS011;50864;45.050;39.014;2022-08-21T12:13:39;48.90;;;11.07;;
64487;SDS011;50864;45.050;39.014;2022-08-21T12:16:06;36.05;;;9.90;;
64487;SDS011;50864;45.050;39.014;2022-08-21T12:18:32;45.63;;;11.60;;
64487;SDS011;50864;45.050;39.014;2022-08-21T12:21:04;49.53;;;12.20;;
64487;SDS011;50864;45.050;39.014;2022-08-21T12:23:31;46.45;;;13.23;;
64487;SDS011;50864;45.050;39.014;2022-08-21T12:26:17;77.05;;;19.08;;
64487;SDS011;50864;45.050;39.014;2022-08-21T12:28:44;76.37;;;19.67;;
64487;SDS011;50864;45.050;39.014;2022-08-21T12:31:24;67.03;;;18.48;;
64487;SDS011;50864;45.050;39.014;2022-08-21T12:33:54;70.32;;;17.90;;
64487;SDS011;50864;45.050;39.014;2022-08-21T12:36:23;55.65;;;15.75;;
64487;SDS011;50864;45.050;39.014;2022-08-21T12:38:56;67.72;;;15.98;;
64487;SDS011;50864;45.050;39.014;2022-08-21T12:41:30;69.10;;;17.52;;
64487;SDS011;50864;45.050;39.014;2022-08-21T12:43:59;62.72;;;17.50;;
64487;SDS011;50864;45.050;39.014;2022-08-21T12:46:29;65.15;;;15.82;;
64487;SDS011;50864;45.050;39.014;2022-08-21T12:48:57;48.50;;;14.10;;
64487;SDS011;50864;45.050;39.014;2022-08-21T12:53:51;64.75;;;17.10;;
64487;SDS011;50864;45.050;39.014;2022-08-21T12:56:19;70.70;;;16.50;;
64487;SDS011;50864;45.050;39.014;2022-08-21T12:58:46;62.30;;;14.90;;
64487;SDS011;50864;45.050;39.014;2022-08-21T13:01:58;63.38;;;17.92;;
64487;SDS011;50864;45.050;39.014;2022-08-21T13:04:04;63.60;;;17.30;;
64487;SDS011;50864;45.050;39.014;2022-08-21T13:06:37;64.28;;;17.83;;
64487;SDS011;50864;45.050;39.014;2022-08-21T13:09:05;57.53;;;14.87;;
64487;SDS011;50864;45.050;39.014;2022-08-21T13:11:32;47.40;;;12.88;;
64487;SDS011;50864;45.050;39.014;2022-08-21T13:13:58;52.55;;;13.35;;
64487;SDS011;50864;45.050;39.014;2022-08-21T13:16:27;51.30;;;12.63;;
64487;SDS011;50864;45.050;39.014;2022-08-21T13:21:19;57.62;;;14.05;;
64487;SDS011;50864;45.050;39.014;2022-08-21T13:23:46;47.97;;;13.40;;
64487;SDS011;50864;45.050;39.014;2022-08-21T13:26:19;46.88;;;13.43;;
64487;SDS011;50864;45.050;39.014;2022-08-21T13:28:46;45.42;;;11.20;;
64487;SDS011;50864;45.050;39.014;2022-08-21T13:31:16;42.95;;;12.57;;
64487;SDS011;50864;45.050;39.014;2022-08-21T13:33:43;46.03;;;12.15;;
64487;SDS011;50864;45.050;39.014;2022-08-21T13:36:10;63.90;;;14.15;;
64487;SDS011;50864;45.050;39.014;2022-08-21T13:38:38;44.83;;;11.00;;
64487;SDS011;50864;45.050;39.014;2022-08-21T13:41:26;31.17;;;7.57;;
64487;SDS011;50864;45.050;39.014;2022-08-21T13:44:02;55.72;;;16.15;;
64487;SDS011;50864;45.050;39.014;2022-08-21T13:46:32;67.25;;;19.87;;
64487;SDS011;50864;45.050;39.014;2022-08-21T13:48:59;45.65;;;17.50;;
64487;SDS011;50864;45.050;39.014;2022-08-21T13:51:26;66.12;;;20.42;;
64487;SDS011;50864;45.050;39.014;2022-08-21T13:53:52;75.47;;;22.48;;
64487;SDS011;50864;45.050;39.014;2022-08-21T13:56:23;79.78;;;22.10;;
64487;SDS011;50864;45.050;39.014;2022-08-21T13:58:51;70.22;;;18.95;;
64487;SDS011;50864;45.050;39.014;2022-08-21T14:01:39;67.80;;;19.45;;
64487;SDS011;50864;45.050;39.014;2022-08-21T14:06:50;84.05;;;23.70;;
64487;SDS011;50864;45.050;39.014;2022-08-21T14:09:30;81.22;;;24.25;;
64487;SDS011;50864;45.050;39.014;2022-08-21T14:11:57;81.50;;;24.73;;
64487;SDS011;50864;45.050;39.014;2022-08-21T14:14:31;74.45;;;21.15;;
64487;SDS011;50864;45.050;39.014;2022-08-21T14:17:01;84.05;;;24.00;;
64487;SDS011;50864;45.050;39.014;2022-08-21T14:22:26;67.87;;;21.62;;
64487;SDS011;50864;45.050;39.014;2022-08-21T14:24:48;85.65;;;23.45;;
64487;SDS011;50864;45.050;39.014;2022-08-21T14:27:17;75.37;;;22.40;;
64487;SDS011;50864;45.050;39.014;2022-08-21T14:29:43;76.07;;;22.70;;
64487;SDS011;50864;45.050;39.014;2022-08-21T14:32:13;66.75;;;22.08;;
64487;SDS011;50864;45.050;39.014;2022-08-21T14:34:39;71.03;;;21.12;;
64487;SDS011;50864;45.050;39.014;2022-08-21T14:37:05;70.85;;;20.77;;
64487;SDS011;50864;45.050;39.014;2022-08-21T14:39:33;51.72;;;12.43;;
64487;SDS011;50864;45.050;39.014;2022-08-21T14:41:59;75.80;;;23.08;;
64487;SDS011;50864;45.050;39.014;2022-08-21T14:44:26;93.65;;;28.38;;
64487;SDS011;50864;45.050;39.014;2022-08-21T14:46:52;83.72;;;24.23;;
64487;SDS011;50864;45.050;39.014;2022-08-21T14:49:18;87.72;;;26.20;;
64487;SDS011;50864;45.050;39.014;2022-08-21T14:51:57;125.22;;;34.75;;
64487;SDS011;50864;45.050;39.014;2022-08-21T14:54:24;76.20;;;22.52;;
64487;SDS011;50864;45.050;39.014;2022-08-21T14:56:50;103.70;;;32.28;;
64487;SDS011;50864;45.050;39.014;2022-08-21T14:59:16;118.47;;;34.70;;
64487;SDS011;50864;45.050;39.014;2022-08-21T15:01:42;119.40;;;32.40;;
64487;SDS011;50864;45.050;39.014;2022-08-21T15:04:08;106.97;;;30.02;;
64487;SDS011;50864;45.050;39.014;2022-08-21T15:06:34;111.07;;;31.52;;
64487;SDS011;50864;45.050;39.014;2022-08-21T15:09:00;132.23;;;35.63;;
64487;SDS011;50864;45.050;39.014;2022-08-21T15:11:29;101.07;;;29.05;;
64487;SDS011;50864;45.050;39.014;2022-08-21T15:13:56;153.25;;;38.95;;